IRM52 OMDB-OIIE
Flight info
| Callsign | IRM52 |
|---|---|
| Flight time | 1h 1m |
| Altitude | 40000 |
| Route | DAVMO4F DAVMO M318 GABKO M317 RADEB M318 ASMUK W32 ROVAD G208 RADAL RADAL3X |
| Aircraft | A346/H-SDE2E3FGHIJ3J4J5M1RWXY/LB1D1 |
Departure
| Time | 2026-05-06 20:54 |
|---|---|
| Airport | Dubai International Airport (OMDB) |
Arrival
| Time | 2026-05-06 21:55 |
|---|---|
| Airport | Imam Khomeini International Airport (OIIE) |
| Time | Latitude | Longitude | Altitude | Speed | Heading |
|---|---|---|---|---|---|
| 2026-05-06 20:16 | 25.25787 | 55.34701 | 30 ft | 0 kts | 211° |
| 2026-05-06 20:36 | 25.25804 | 55.34712 | 29 ft | 3 kts | 211° |
| 2026-05-06 20:37 | 25.25823 | 55.34725 | 29 ft | 3 kts | 211° |
| 2026-05-06 20:37 | 25.25838 | 55.34735 | 28 ft | 3 kts | 200° |
| 2026-05-06 20:37 | 25.25855 | 55.34738 | 28 ft | 3 kts | 172° |
| 2026-05-06 20:37 | 25.25869 | 55.34733 | 27 ft | 3 kts | 141° |
| 2026-05-06 20:38 | 25.25881 | 55.34718 | 30 ft | 3 kts | 121° |
| 2026-05-06 20:38 | 25.25892 | 55.34696 | 30 ft | 3 kts | 121° |
| 2026-05-06 20:38 | 25.25899 | 55.34684 | 28 ft | 0 kts | 121° |
| 2026-05-06 20:41 | 25.25898 | 55.34686 | 29 ft | 1 kts | 121° |
| 2026-05-06 20:41 | 25.25887 | 55.34707 | 30 ft | 5 kts | 121° |
| 2026-05-06 20:42 | 25.25863 | 55.34749 | 30 ft | 8 kts | 121° |
| 2026-05-06 20:42 | 25.25827 | 55.34814 | 30 ft | 12 kts | 122° |
| 2026-05-06 20:42 | 25.25782 | 55.34894 | 30 ft | 11 kts | 122° |
| 2026-05-06 20:42 | 25.25739 | 55.34969 | 30 ft | 12 kts | 122° |
| 2026-05-06 20:43 | 25.25699 | 55.35042 | 30 ft | 8 kts | 120° |
| 2026-05-06 20:43 | 25.25672 | 55.35107 | 30 ft | 10 kts | 96° |
| 2026-05-06 20:43 | 25.25711 | 55.35173 | 30 ft | 12 kts | 34° |
| 2026-05-06 20:43 | 25.25790 | 55.35227 | 30 ft | 15 kts | 32° |
| 2026-05-06 20:44 | 25.25869 | 55.35281 | 29 ft | 11 kts | 31° |
| 2026-05-06 20:44 | 25.25936 | 55.35326 | 30 ft | 10 kts | 32° |
| 2026-05-06 20:44 | 25.25990 | 55.35393 | 30 ft | 13 kts | 63° |
| 2026-05-06 20:44 | 25.26007 | 55.35484 | 30 ft | 12 kts | 94° |
| 2026-05-06 20:45 | 25.25980 | 55.35570 | 30 ft | 13 kts | 118° |
| 2026-05-06 20:45 | 25.25926 | 55.35669 | 30 ft | 16 kts | 121° |
| 2026-05-06 20:45 | 25.25859 | 55.35788 | 30 ft | 20 kts | 122° |
| 2026-05-06 20:45 | 25.25788 | 55.35914 | 31 ft | 19 kts | 122° |
| 2026-05-06 20:46 | 25.25716 | 55.36043 | 31 ft | 19 kts | 122° |
| 2026-05-06 20:46 | 25.25643 | 55.36172 | 31 ft | 21 kts | 122° |
| 2026-05-06 20:46 | 25.25566 | 55.36309 | 31 ft | 18 kts | 122° |
| 2026-05-06 20:46 | 25.25497 | 55.36431 | 31 ft | 20 kts | 122° |
| 2026-05-06 20:47 | 25.25421 | 55.36566 | 30 ft | 20 kts | 122° |
| 2026-05-06 20:47 | 25.25351 | 55.36691 | 30 ft | 18 kts | 122° |
| 2026-05-06 20:47 | 25.25285 | 55.36809 | 30 ft | 19 kts | 122° |
| 2026-05-06 20:47 | 25.25212 | 55.36939 | 30 ft | 20 kts | 122° |
| 2026-05-06 20:48 | 25.25137 | 55.37071 | 31 ft | 20 kts | 122° |
| 2026-05-06 20:48 | 25.25066 | 55.37198 | 32 ft | 20 kts | 122° |
| 2026-05-06 20:48 | 25.25001 | 55.37314 | 32 ft | 17 kts | 122° |
| 2026-05-06 20:48 | 25.24936 | 55.37430 | 32 ft | 18 kts | 122° |
| 2026-05-06 20:49 | 25.24866 | 55.37554 | 31 ft | 18 kts | 122° |
| 2026-05-06 20:49 | 25.24802 | 55.37668 | 31 ft | 18 kts | 122° |
| 2026-05-06 20:49 | 25.24738 | 55.37780 | 31 ft | 17 kts | 122° |
| 2026-05-06 20:49 | 25.24697 | 55.37854 | 31 ft | 9 kts | 122° |
| 2026-05-06 20:50 | 25.24664 | 55.37919 | 31 ft | 7 kts | 103° |
| 2026-05-06 20:50 | 25.24680 | 55.37965 | 31 ft | 1 kts | 35° |
| 2026-05-06 20:50 | 25.24681 | 55.37965 | 31 ft | 0 kts | 32° |
| 2026-05-06 20:51 | 25.24687 | 55.37969 | 31 ft | 3 kts | 32° |
| 2026-05-06 20:51 | 25.24721 | 55.37992 | 32 ft | 8 kts | 32° |
| 2026-05-06 20:51 | 25.24775 | 55.38019 | 33 ft | 10 kts | 2° |
| 2026-05-06 20:51 | 25.24833 | 55.37976 | 33 ft | 12 kts | 303° |
| 2026-05-06 20:52 | 25.24840 | 55.37964 | 33 ft | 0 kts | 301° |
| 2026-05-06 20:52 | 25.24841 | 55.37962 | 33 ft | 0 kts | 301° |
| 2026-05-06 20:52 | 25.24842 | 55.37961 | 33 ft | 0 kts | 301° |
| 2026-05-06 20:53 | 25.24843 | 55.37958 | 33 ft | 0 kts | 301° |
| 2026-05-06 20:53 | 25.24854 | 55.37940 | 34 ft | 11 kts | 301° |
| 2026-05-06 20:53 | 25.25027 | 55.37627 | 35 ft | 85 kts | 301° |
| 2026-05-06 20:53 | 25.25459 | 55.36850 | 31 ft | 149 kts | 301° |
| 2026-05-06 20:54 | 25.26086 | 55.35697 | 144 ft | 191 kts | 301° |
| 2026-05-06 20:54 | 25.26751 | 55.34481 | 986 ft | 181 kts | 301° |
| 2026-05-06 20:54 | 25.27413 | 55.33286 | 1726 ft | 183 kts | 301° |
| 2026-05-06 20:54 | 25.28094 | 55.32081 | 2178 ft | 192 kts | 301° |
| 2026-05-06 20:55 | 25.28832 | 55.30780 | 2468 ft | 207 kts | 304° |
| 2026-05-06 20:55 | 25.29957 | 55.29702 | 2733 ft | 225 kts | 335° |
| 2026-05-06 20:55 | 25.31000 | 55.29436 | 2925 ft | 236 kts | 356° |
| 2026-05-06 20:55 | 25.33252 | 55.29480 | 3458 ft | 250 kts | 2° |
| 2026-05-06 20:56 | 25.34409 | 55.29533 | 3925 ft | 249 kts | 2° |
| 2026-05-06 20:56 | 25.36146 | 55.29606 | 4685 ft | 249 kts | 1° |
| 2026-05-06 20:56 | 25.38461 | 55.29685 | 5612 ft | 252 kts | 2° |
| 2026-05-06 20:56 | 25.39627 | 55.29834 | 6066 ft | 255 kts | 10° |
| 2026-05-06 20:57 | 25.41365 | 55.30395 | 6647 ft | 266 kts | 20° |
| 2026-05-06 20:57 | 25.43140 | 55.31198 | 7074 ft | 283 kts | 22° |
| 2026-05-06 20:57 | 25.44969 | 55.32072 | 7642 ft | 294 kts | 23° |
| 2026-05-06 20:57 | 25.46862 | 55.32974 | 8485 ft | 295 kts | 23° |
| 2026-05-06 20:58 | 25.48757 | 55.33866 | 9398 ft | 294 kts | 23° |
| 2026-05-06 20:58 | 25.50625 | 55.34739 | 10249 ft | 294 kts | 23° |
| 2026-05-06 20:58 | 25.52562 | 55.35638 | 10761 ft | 308 kts | 24° |
| 2026-05-06 20:58 | 25.54578 | 55.36579 | 11124 ft | 326 kts | 24° |
| 2026-05-06 20:59 | 25.56708 | 55.37662 | 11477 ft | 344 kts | 28° |
| 2026-05-06 20:59 | 25.58861 | 55.38994 | 11817 ft | 361 kts | 33° |
| 2026-05-06 20:59 | 25.60951 | 55.40539 | 12381 ft | 369 kts | 36° |
| 2026-05-06 20:59 | 25.63070 | 55.42190 | 13229 ft | 371 kts | 37° |
| 2026-05-06 21:00 | 25.65180 | 55.43870 | 14038 ft | 373 kts | 38° |
| 2026-05-06 21:00 | 25.67205 | 55.45655 | 14749 ft | 377 kts | 41° |
| 2026-05-06 21:00 | 25.69193 | 55.47624 | 15396 ft | 383 kts | 44° |
| 2026-05-06 21:00 | 25.71133 | 55.49650 | 16014 ft | 389 kts | 44° |
| 2026-05-06 21:01 | 25.73118 | 55.51738 | 16679 ft | 396 kts | 44° |
| 2026-05-06 21:01 | 25.75143 | 55.53868 | 17321 ft | 402 kts | 43° |
| 2026-05-06 21:01 | 25.77178 | 55.56007 | 17971 ft | 408 kts | 43° |
| 2026-05-06 21:01 | 25.79259 | 55.58192 | 18537 ft | 414 kts | 43° |
| 2026-05-06 21:02 | 25.81371 | 55.60412 | 19087 ft | 419 kts | 43° |
| 2026-05-06 21:02 | 25.83495 | 55.62610 | 19668 ft | 424 kts | 41° |
| 2026-05-06 21:02 | 25.85776 | 55.64740 | 20166 ft | 431 kts | 37° |
| 2026-05-06 21:02 | 25.88226 | 55.66749 | 20545 ft | 441 kts | 33° |
| 2026-05-06 21:03 | 25.90795 | 55.68616 | 21071 ft | 446 kts | 31° |
| 2026-05-06 21:03 | 25.93438 | 55.70475 | 21673 ft | 449 kts | 31° |
| 2026-05-06 21:03 | 25.96079 | 55.72323 | 22234 ft | 454 kts | 31° |
| 2026-05-06 21:03 | 25.98773 | 55.74215 | 22782 ft | 459 kts | 31° |
| 2026-05-06 21:04 | 26.01502 | 55.76140 | 23329 ft | 463 kts | 30° |
| 2026-05-06 21:04 | 26.04291 | 55.77951 | 23754 ft | 466 kts | 23° |
| 2026-05-06 21:04 | 26.07331 | 55.79131 | 24173 ft | 467 kts | 11° |
| 2026-05-06 21:04 | 26.10572 | 55.79584 | 24649 ft | 466 kts | 358° |
| 2026-05-06 21:05 | 26.13798 | 55.79426 | 25120 ft | 467 kts | 353° |
| 2026-05-06 21:05 | 26.17041 | 55.79263 | 25571 ft | 473 kts | 356° |
| 2026-05-06 21:05 | 26.20375 | 55.79379 | 26002 ft | 480 kts | 1° |
| 2026-05-06 21:05 | 26.23696 | 55.79795 | 26441 ft | 486 kts | 5° |
| 2026-05-06 21:06 | 26.27051 | 55.80437 | 26876 ft | 491 kts | 7° |
| 2026-05-06 21:06 | 26.30433 | 55.81140 | 27310 ft | 495 kts | 7° |
| 2026-05-06 21:06 | 26.33829 | 55.81861 | 27719 ft | 499 kts | 7° |
| 2026-05-06 21:06 | 26.37252 | 55.82588 | 28211 ft | 501 kts | 7° |
| 2026-05-06 21:07 | 26.40669 | 55.83312 | 28869 ft | 500 kts | 7° |
| 2026-05-06 21:07 | 26.44076 | 55.84033 | 29543 ft | 498 kts | 6° |
| 2026-05-06 21:07 | 26.47457 | 55.84745 | 30131 ft | 497 kts | 6° |
| 2026-05-06 21:07 | 26.50861 | 55.85457 | 30650 ft | 496 kts | 6° |
| 2026-05-06 21:08 | 26.54248 | 55.86164 | 31188 ft | 495 kts | 5° |
| 2026-05-06 21:08 | 26.57650 | 55.86875 | 31763 ft | 494 kts | 5° |
| 2026-05-06 21:08 | 26.60992 | 55.87575 | 32317 ft | 492 kts | 5° |
| 2026-05-06 21:08 | 26.64370 | 55.88282 | 32893 ft | 490 kts | 5° |
| 2026-05-06 21:09 | 26.67696 | 55.88978 | 33453 ft | 489 kts | 5° |
| 2026-05-06 21:09 | 26.71053 | 55.89682 | 33977 ft | 487 kts | 5° |
| 2026-05-06 21:09 | 26.74366 | 55.90374 | 34433 ft | 486 kts | 4° |
| 2026-05-06 21:09 | 26.77703 | 55.90953 | 34865 ft | 483 kts | 1° |
| 2026-05-06 21:10 | 26.81009 | 55.91391 | 35269 ft | 482 kts | 0° |
| 2026-05-06 21:10 | 26.84347 | 55.91802 | 35670 ft | 482 kts | 0° |
| 2026-05-06 21:10 | 26.87692 | 55.92205 | 36058 ft | 482 kts | 360° |
| 2026-05-06 21:10 | 26.90999 | 55.92605 | 36429 ft | 482 kts | 360° |
| 2026-05-06 21:11 | 26.94350 | 55.93011 | 36855 ft | 482 kts | 360° |
| 2026-05-06 21:11 | 26.97650 | 55.93416 | 37243 ft | 482 kts | 360° |
| 2026-05-06 21:11 | 27.00982 | 55.93824 | 37660 ft | 481 kts | 360° |
| 2026-05-06 21:11 | 27.04307 | 55.94231 | 38048 ft | 481 kts | 360° |
| 2026-05-06 21:12 | 27.07647 | 55.94640 | 38372 ft | 482 kts | 360° |
| 2026-05-06 21:12 | 27.10994 | 55.95051 | 38604 ft | 484 kts | 360° |
| 2026-05-06 21:12 | 27.14326 | 55.95459 | 38816 ft | 485 kts | 360° |
| 2026-05-06 21:12 | 27.17703 | 55.95874 | 39040 ft | 487 kts | 360° |
| 2026-05-06 21:13 | 27.21074 | 55.96291 | 39284 ft | 488 kts | 360° |
| 2026-05-06 21:13 | 27.24409 | 55.96705 | 39506 ft | 488 kts | 360° |
| 2026-05-06 21:13 | 27.27801 | 55.97123 | 39726 ft | 489 kts | 360° |
| 2026-05-06 21:14 | 27.34602 | 55.97962 | 39797 ft | 491 kts | 360° |
| 2026-05-06 21:14 | 27.41387 | 55.98803 | 39818 ft | 491 kts | 360° |
| 2026-05-06 21:15 | 27.48182 | 55.99648 | 39864 ft | 491 kts | 359° |
| 2026-05-06 21:15 | 27.55008 | 56.00495 | 39854 ft | 492 kts | 359° |
| 2026-05-06 21:16 | 27.61786 | 56.01335 | 39877 ft | 492 kts | 359° |
| 2026-05-06 21:16 | 27.68587 | 56.02179 | 39902 ft | 492 kts | 359° |
| 2026-05-06 21:17 | 27.75390 | 56.03028 | 39901 ft | 492 kts | 359° |
| 2026-05-06 21:17 | 27.82172 | 56.03872 | 39917 ft | 491 kts | 359° |
| 2026-05-06 21:18 | 27.88948 | 56.04717 | 39935 ft | 492 kts | 359° |
| 2026-05-06 21:18 | 27.95779 | 56.05567 | 39934 ft | 492 kts | 359° |
| 2026-05-06 21:19 | 28.02560 | 56.06415 | 39946 ft | 492 kts | 359° |
| 2026-05-06 21:19 | 28.09356 | 56.07143 | 39952 ft | 489 kts | 355° |
| 2026-05-06 21:20 | 28.16104 | 56.07088 | 39952 ft | 481 kts | 348° |
| 2026-05-06 21:20 | 28.22649 | 56.06160 | 39965 ft | 473 kts | 341° |
| 2026-05-06 21:21 | 28.29004 | 56.04465 | 39973 ft | 468 kts | 337° |
| 2026-05-06 21:21 | 28.35331 | 56.02547 | 39990 ft | 468 kts | 337° |
| 2026-05-06 21:22 | 28.41586 | 56.00655 | 40000 ft | 469 kts | 337° |
| 2026-05-06 21:22 | 28.47910 | 55.98756 | 40017 ft | 468 kts | 337° |
| 2026-05-06 21:23 | 28.54191 | 55.96868 | 40030 ft | 467 kts | 336° |
| 2026-05-06 21:23 | 28.60464 | 55.94978 | 40031 ft | 467 kts | 336° |
| 2026-05-06 21:24 | 28.66733 | 55.93089 | 40064 ft | 467 kts | 336° |
| 2026-05-06 21:24 | 33.41207 | 53.90238 | 39263 ft | 474 kts | 339° |
| 2026-05-06 21:24 | 33.44436 | 53.89456 | 39612 ft | 466 kts | 334° |
| 2026-05-06 21:25 | 33.47483 | 53.88372 | 39776 ft | 459 kts | 329° |
| 2026-05-06 21:25 | 33.53243 | 53.85295 | 39874 ft | 446 kts | 320° |
| 2026-05-06 21:26 | 33.58339 | 53.81268 | 39902 ft | 432 kts | 312° |
| 2026-05-06 21:26 | 33.62823 | 53.76578 | 39900 ft | 428 kts | 308° |
| 2026-05-06 21:27 | 33.67255 | 53.71728 | 39920 ft | 430 kts | 308° |
| 2026-05-06 21:27 | 33.71685 | 53.66863 | 39901 ft | 431 kts | 308° |
| 2026-05-06 21:28 | 33.76097 | 53.62025 | 39896 ft | 431 kts | 308° |
| 2026-05-06 21:28 | 33.80540 | 53.57150 | 39878 ft | 431 kts | 308° |
| 2026-05-06 21:29 | 33.84953 | 53.52297 | 39903 ft | 431 kts | 308° |
| 2026-05-06 21:29 | 33.89396 | 53.47407 | 39884 ft | 431 kts | 308° |
| 2026-05-06 21:30 | 33.93809 | 53.42546 | 39888 ft | 431 kts | 308° |
| 2026-05-06 21:30 | 33.98252 | 53.37643 | 39882 ft | 431 kts | 308° |
| 2026-05-06 21:31 | 34.02650 | 53.32781 | 39890 ft | 431 kts | 308° |
| 2026-05-06 21:31 | 34.07087 | 53.27870 | 39874 ft | 431 kts | 308° |
| 2026-05-06 21:32 | 34.11484 | 53.22999 | 39880 ft | 431 kts | 308° |
| 2026-05-06 21:32 | 34.15900 | 53.18097 | 39413 ft | 428 kts | 308° |
| 2026-05-06 21:32 | 34.18101 | 53.15650 | 39096 ft | 426 kts | 308° |
| 2026-05-06 21:33 | 34.20285 | 53.13221 | 38666 ft | 426 kts | 308° |
| 2026-05-06 21:33 | 34.22442 | 53.10818 | 38106 ft | 426 kts | 308° |
| 2026-05-06 21:33 | 34.24626 | 53.08381 | 37490 ft | 426 kts | 308° |
| 2026-05-06 21:33 | 34.26814 | 53.05935 | 36811 ft | 428 kts | 308° |
| 2026-05-06 21:34 | 34.29013 | 53.03474 | 36101 ft | 431 kts | 309° |
| 2026-05-06 21:34 | 34.31227 | 53.00993 | 35340 ft | 436 kts | 309° |
| 2026-05-06 21:34 | 34.33448 | 52.98507 | 34460 ft | 443 kts | 309° |
| 2026-05-06 21:34 | 34.35733 | 52.95948 | 33698 ft | 448 kts | 310° |
| 2026-05-06 21:35 | 34.38037 | 52.93369 | 32946 ft | 450 kts | 310° |
| 2026-05-06 21:35 | 34.40356 | 52.90773 | 32162 ft | 454 kts | 310° |
| 2026-05-06 21:35 | 34.42659 | 52.88192 | 31347 ft | 458 kts | 310° |
| 2026-05-06 21:35 | 34.45011 | 52.85553 | 30534 ft | 462 kts | 310° |
| 2026-05-06 21:36 | 34.47387 | 52.82885 | 29522 ft | 469 kts | 311° |
| 2026-05-06 21:36 | 34.49794 | 52.80180 | 28626 ft | 471 kts | 311° |
| 2026-05-06 21:36 | 34.52211 | 52.77464 | 27779 ft | 473 kts | 311° |
| 2026-05-06 21:36 | 34.54624 | 52.74753 | 27146 ft | 470 kts | 311° |
| 2026-05-06 21:37 | 34.57009 | 52.72076 | 26624 ft | 464 kts | 311° |
| 2026-05-06 21:37 | 34.59345 | 52.69447 | 26011 ft | 461 kts | 311° |
| 2026-05-06 21:37 | 34.61691 | 52.66803 | 25449 ft | 457 kts | 311° |
| 2026-05-06 21:37 | 34.64021 | 52.64172 | 24851 ft | 455 kts | 311° |
| 2026-05-06 21:38 | 34.66333 | 52.61557 | 24308 ft | 452 kts | 311° |
| 2026-05-06 21:38 | 34.68636 | 52.58951 | 23802 ft | 448 kts | 311° |
| 2026-05-06 21:38 | 34.70893 | 52.56397 | 23273 ft | 445 kts | 311° |
| 2026-05-06 21:38 | 34.73153 | 52.53838 | 22713 ft | 441 kts | 311° |
| 2026-05-06 21:39 | 34.75389 | 52.51305 | 22215 ft | 436 kts | 311° |
| 2026-05-06 21:39 | 34.77606 | 52.48793 | 21767 ft | 431 kts | 311° |
| 2026-05-06 21:39 | 34.79793 | 52.46313 | 21331 ft | 426 kts | 311° |
| 2026-05-06 21:39 | 34.81951 | 52.43860 | 20884 ft | 421 kts | 311° |
| 2026-05-06 21:40 | 34.84064 | 52.41456 | 20442 ft | 417 kts | 311° |
| 2026-05-06 21:40 | 34.86186 | 52.39041 | 20002 ft | 414 kts | 311° |
| 2026-05-06 21:40 | 34.88258 | 52.36635 | 19561 ft | 409 kts | 308° |
| 2026-05-06 21:40 | 34.90099 | 52.34070 | 19106 ft | 402 kts | 302° |
| 2026-05-06 21:41 | 34.91676 | 52.31286 | 18664 ft | 394 kts | 296° |
| 2026-05-06 21:41 | 34.92984 | 52.28361 | 18221 ft | 389 kts | 291° |
| 2026-05-06 21:41 | 34.94198 | 52.25399 | 17708 ft | 387 kts | 291° |
| 2026-05-06 21:41 | 34.95373 | 52.22490 | 17235 ft | 385 kts | 291° |
| 2026-05-06 21:42 | 34.96559 | 52.19555 | 16771 ft | 382 kts | 291° |
| 2026-05-06 21:42 | 34.97722 | 52.16681 | 16333 ft | 379 kts | 291° |
| 2026-05-06 21:42 | 34.98900 | 52.13776 | 15878 ft | 377 kts | 291° |
| 2026-05-06 21:42 | 35.00050 | 52.10942 | 15451 ft | 375 kts | 291° |
| 2026-05-06 21:43 | 35.01196 | 52.08118 | 15004 ft | 373 kts | 291° |
| 2026-05-06 21:43 | 35.02349 | 52.05274 | 14576 ft | 371 kts | 291° |
| 2026-05-06 21:43 | 35.03492 | 52.02454 | 14139 ft | 369 kts | 291° |
| 2026-05-06 21:43 | 35.04613 | 51.99686 | 13708 ft | 367 kts | 291° |
| 2026-05-06 21:44 | 35.05745 | 51.96890 | 13237 ft | 365 kts | 291° |
| 2026-05-06 21:44 | 35.06867 | 51.94113 | 12760 ft | 363 kts | 291° |
| 2026-05-06 21:44 | 35.07985 | 51.91345 | 12284 ft | 361 kts | 291° |
| 2026-05-06 21:44 | 35.09096 | 51.88594 | 11819 ft | 359 kts | 291° |
| 2026-05-06 21:45 | 35.10202 | 51.85851 | 11378 ft | 357 kts | 291° |
| 2026-05-06 21:45 | 35.11290 | 51.83153 | 10931 ft | 355 kts | 291° |
| 2026-05-06 21:45 | 35.12368 | 51.80483 | 10778 ft | 342 kts | 291° |
| 2026-05-06 21:45 | 35.13396 | 51.77941 | 10614 ft | 330 kts | 291° |
| 2026-05-06 21:46 | 35.14398 | 51.75458 | 10484 ft | 318 kts | 291° |
| 2026-05-06 21:46 | 35.15353 | 51.73087 | 10342 ft | 306 kts | 291° |
| 2026-05-06 21:46 | 35.16278 | 51.70784 | 10229 ft | 295 kts | 291° |
| 2026-05-06 21:46 | 35.17169 | 51.68563 | 10126 ft | 284 kts | 291° |
| 2026-05-06 21:47 | 35.18016 | 51.66452 | 10025 ft | 276 kts | 291° |
| 2026-05-06 21:47 | 35.18860 | 51.64343 | 9926 ft | 274 kts | 290° |
| 2026-05-06 21:47 | 35.19698 | 51.62239 | 9582 ft | 275 kts | 291° |
| 2026-05-06 21:47 | 35.20257 | 51.60836 | 9364 ft | 275 kts | 291° |
| 2026-05-06 21:48 | 35.21100 | 51.58727 | 9047 ft | 275 kts | 291° |
| 2026-05-06 21:48 | 35.21939 | 51.56624 | 8740 ft | 274 kts | 291° |
| 2026-05-06 21:48 | 35.22772 | 51.54545 | 8440 ft | 274 kts | 291° |
| 2026-05-06 21:48 | 35.23607 | 51.52451 | 8136 ft | 274 kts | 291° |
| 2026-05-06 21:49 | 35.24441 | 51.50355 | 7828 ft | 273 kts | 291° |
| 2026-05-06 21:49 | 35.25274 | 51.48261 | 7535 ft | 274 kts | 291° |
| 2026-05-06 21:49 | 35.26111 | 51.46161 | 7231 ft | 274 kts | 292° |
| 2026-05-06 21:49 | 35.26950 | 51.44054 | 6956 ft | 275 kts | 292° |
| 2026-05-06 21:50 | 35.27818 | 51.41970 | 6661 ft | 274 kts | 300° |
| 2026-05-06 21:50 | 35.29203 | 51.40371 | 6342 ft | 278 kts | 331° |
| 2026-05-06 21:50 | 35.31040 | 51.39701 | 6084 ft | 276 kts | 350° |
| 2026-05-06 21:50 | 35.32944 | 51.39357 | 5801 ft | 274 kts | 352° |
| 2026-05-06 21:51 | 35.34745 | 51.38679 | 5478 ft | 273 kts | 325° |
| 2026-05-06 21:51 | 35.35942 | 51.36969 | 5216 ft | 266 kts | 292° |
| 2026-05-06 21:51 | 35.36490 | 51.34858 | 5150 ft | 253 kts | 282° |
| 2026-05-06 21:51 | 35.36896 | 51.32825 | 5153 ft | 238 kts | 283° |
| 2026-05-06 21:52 | 35.37344 | 51.30968 | 5172 ft | 215 kts | 285° |
| 2026-05-06 21:52 | 35.37791 | 51.29326 | 5122 ft | 191 kts | 287° |
| 2026-05-06 21:52 | 35.38200 | 51.27864 | 5090 ft | 177 kts | 287° |
| 2026-05-06 21:52 | 35.38596 | 51.26438 | 4891 ft | 175 kts | 287° |
| 2026-05-06 21:53 | 35.38985 | 51.25022 | 4662 ft | 175 kts | 287° |
| 2026-05-06 21:53 | 35.39374 | 51.23608 | 4442 ft | 174 kts | 288° |
| 2026-05-06 21:53 | 35.39757 | 51.22226 | 4226 ft | 171 kts | 288° |
| 2026-05-06 21:53 | 35.40136 | 51.20849 | 3997 ft | 167 kts | 288° |
| 2026-05-06 21:54 | 35.40508 | 51.19507 | 3801 ft | 164 kts | 289° |
| 2026-05-06 21:54 | 35.40872 | 51.18190 | 3560 ft | 161 kts | 289° |
| 2026-05-06 21:54 | 35.41230 | 51.16896 | 3365 ft | 159 kts | 289° |
| 2026-05-06 21:54 | 35.41574 | 51.15648 | 3276 ft | 139 kts | 289° |
| 2026-05-06 21:55 | 35.41830 | 51.14738 | 3296 ft | 86 kts | 289° |
| 2026-05-06 21:55 | 35.41975 | 51.14225 | 3295 ft | 45 kts | 289° |
| 2026-05-06 21:55 | 35.42043 | 51.13973 | 3305 ft | 25 kts | 284° |
| 2026-05-06 21:55 | 35.42052 | 51.13762 | 3309 ft | 25 kts | 264° |
| 2026-05-06 21:56 | 35.42023 | 51.13561 | 3313 ft | 18 kts | 258° |
| 2026-05-06 21:56 | 35.41964 | 51.13444 | 3315 ft | 13 kts | 207° |
| 2026-05-06 21:56 | 35.41884 | 51.13491 | 3314 ft | 16 kts | 114° |
| 2026-05-06 21:56 | 35.41841 | 51.13638 | 3306 ft | 20 kts | 109° |
| 2026-05-06 21:57 | 35.41789 | 51.13825 | 3297 ft | 25 kts | 109° |
| 2026-05-06 21:57 | 35.41728 | 51.14040 | 3295 ft | 27 kts | 109° |
| 2026-05-06 21:57 | 35.41663 | 51.14270 | 3293 ft | 29 kts | 109° |
| 2026-05-06 21:57 | 35.41618 | 51.14436 | 3293 ft | 19 kts | 108° |
| 2026-05-06 21:58 | 35.41570 | 51.14607 | 3287 ft | 23 kts | 109° |
| 2026-05-06 21:58 | 35.41517 | 51.14795 | 3287 ft | 24 kts | 109° |
| 2026-05-06 21:58 | 35.41458 | 51.15007 | 3282 ft | 27 kts | 109° |
| 2026-05-06 21:58 | 35.41427 | 51.15115 | 3279 ft | 7 kts | 108° |
| 2026-05-06 21:59 | 35.41397 | 51.15174 | 3277 ft | 10 kts | 149° |
| 2026-05-06 21:59 | 35.41329 | 51.15164 | 3274 ft | 7 kts | 198° |
| 2026-05-06 21:59 | 35.41274 | 51.15142 | 3278 ft | 9 kts | 198° |
| 2026-05-06 21:59 | 35.41223 | 51.15155 | 3279 ft | 8 kts | 128° |
| 2026-05-06 22:00 | 35.41205 | 51.15210 | 3282 ft | 7 kts | 109° |
| 2026-05-06 22:00 | 35.41178 | 51.15268 | 3277 ft | 9 kts | 142° |
| 2026-05-06 22:00 | 35.41133 | 51.15280 | 3280 ft | 0 kts | 175° |
| 2026-05-06 22:00 | 35.41128 | 51.15281 | 3281 ft | 2 kts | 175° |
| 2026-05-06 22:01 | 35.41108 | 51.15283 | 3279 ft | 4 kts | 175° |
| 2026-05-06 22:01 | 35.41105 | 51.15283 | 3280 ft | 0 kts | 175° |